createdAt,value
2017-12-24T00:00:54.179Z,1016.29
2017-12-24T00:01:54.175Z,1016.27
2017-12-24T00:02:54.179Z,1016.13
2017-12-24T00:03:54.175Z,1016.15
2017-12-24T00:04:54.181Z,1016.11
2017-12-24T00:05:54.199Z,1016.10
2017-12-24T00:06:54.181Z,1016.04
2017-12-24T00:07:54.173Z,1016.04
2017-12-24T00:08:54.175Z,1016.07
2017-12-24T00:09:54.201Z,1015.93
2017-12-24T00:10:54.214Z,1015.92
2017-12-24T00:11:54.172Z,1015.93
2017-12-24T00:12:54.168Z,1016.04
2017-12-24T00:13:54.169Z,1015.97
2017-12-24T00:14:54.171Z,1015.94
2017-12-24T00:15:54.165Z,1015.99
2017-12-24T00:16:54.174Z,1016.04
2017-12-24T00:17:54.167Z,1016.00
2017-12-24T00:18:54.170Z,1015.98
2017-12-24T00:19:54.171Z,1016.02
2017-12-24T00:20:54.165Z,1015.99
2017-12-24T00:21:54.166Z,1016.06
2017-12-24T00:22:54.169Z,1016.00
2017-12-24T00:23:54.158Z,1016.05
2017-12-24T00:24:54.159Z,1016.05
2017-12-24T00:25:54.159Z,1016.01
2017-12-24T00:26:54.161Z,1016.00
2017-12-24T00:27:54.198Z,1016.06
2017-12-24T00:28:54.210Z,1016.02
2017-12-24T00:29:54.154Z,1016.02
2017-12-24T00:30:54.181Z,1015.95
2017-12-24T00:31:54.162Z,1015.93
2017-12-24T00:32:54.156Z,1016.00
2017-12-24T00:33:54.154Z,1015.98
2017-12-24T00:34:54.154Z,1016.01
2017-12-24T00:35:54.150Z,1015.97
2017-12-24T00:36:54.155Z,1016.01
2017-12-24T00:37:54.157Z,1015.92
2017-12-24T00:38:54.161Z,1015.93
2017-12-24T00:39:54.155Z,1015.92
2017-12-24T00:40:54.147Z,1015.92
2017-12-24T00:41:54.149Z,1015.78
2017-12-24T00:42:54.146Z,1015.82
2017-12-24T00:43:54.153Z,1015.85
2017-12-24T00:46:16.293Z,1015.92
